Terminal Aerodrome Forecast
Issued by NWS

Current Version | Previous Version | Graphics & Text | Print | Product List | Glossary On
Versions: 1 2 3 4 5 6 7 8 9 10 11 12 13 14 15 16 17 18 19 20 21 22
088
FTUS41 KRLX 231519 AAA
TAFCKB
TAF AMD
KCKB 231519Z 2315/2412 21005KT P6SM BKN025
     FM232000 23008KT P6SM VCTS BKN050CB=

USA.gov is the U.S. government's official web portal to all federal, state and local government web resources and services.